createdAt,value
2023-04-02T00:08:00.217Z,0.1
2023-04-02T00:20:00.207Z,0.1
2023-04-02T00:32:01.502Z,0.2
2023-04-02T00:44:00.346Z,0.2
2023-04-02T00:56:00.261Z,0.2
2023-04-02T01:08:00.238Z,0.3
2023-04-02T01:20:00.375Z,0.3
2023-04-02T01:32:00.469Z,0.3
2023-04-02T01:44:00.292Z,0.3
2023-04-02T01:56:00.257Z,0.3
2023-04-02T02:08:00.393Z,0.4
2023-04-02T02:20:00.375Z,0.4
2023-04-02T02:32:00.378Z,0.4
2023-04-02T02:44:00.502Z,0.4
2023-04-02T02:56:00.431Z,0.4
2023-04-02T03:08:00.402Z,0.5
2023-04-02T03:20:00.352Z,0.5
2023-04-02T03:32:00.566Z,0.5
2023-04-02T03:44:00.457Z,0.5
2023-04-02T03:56:00.430Z,0.5
2023-04-02T04:08:00.366Z,0.6
2023-04-02T04:20:00.557Z,0.6
2023-04-02T04:32:00.537Z,0.7
2023-04-02T04:44:00.481Z,0.7
2023-04-02T04:56:12.465Z,0.7
2023-04-02T05:08:00.586Z,0.7
2023-04-02T05:20:00.512Z,0.7
2023-04-02T05:32:00.498Z,0.8
2023-04-02T05:44:00.629Z,0.8
2023-04-02T05:56:00.611Z,0.8
2023-04-02T06:08:00.574Z,0.8
2023-04-02T06:20:00.519Z,0.8
2023-04-02T06:32:00.660Z,0.9
2023-04-02T06:44:00.676Z,0.9
2023-04-02T06:56:00.584Z,0.9
2023-04-02T07:08:00.769Z,0.9
2023-04-02T07:20:00.703Z,0.9
2023-04-02T07:32:00.662Z,1
2023-04-02T07:44:00.631Z,1
2023-04-02T07:56:00.787Z,1
2023-04-02T08:08:00.714Z,1
2023-04-02T08:20:00.691Z,1
2023-04-02T08:32:00.624Z,1.1
2023-04-02T08:44:00.823Z,1.1
2023-04-02T08:56:00.768Z,1.1
2023-04-02T09:08:00.814Z,1.1
2023-04-02T09:20:01.382Z,1.1
2023-04-02T09:32:00.963Z,1.2
2023-04-02T09:44:00.774Z,1.2
2023-04-02T09:56:01.065Z,1.2
2023-04-02T10:08:00.933Z,1.3
2023-04-02T10:20:00.929Z,1.3
2023-04-02T10:32:01.907Z,1.3
2023-04-02T10:44:09.426Z,1.3
2023-04-02T10:56:00.962Z,1.3
2023-04-02T11:08:01.473Z,1.4
2023-04-02T11:20:00.890Z,1.4
2023-04-02T11:32:01.050Z,1.4
2023-04-02T11:44:01.286Z,1.4
2023-04-02T11:56:01.320Z,1.4
2023-04-02T12:08:02.040Z,1.5
2023-04-02T12:20:03.207Z,1.5
2023-04-02T12:32:01.014Z,1.6
2023-04-02T12:44:01.003Z,1.6
2023-04-02T12:56:00.904Z,1.6
2023-04-02T13:08:01.107Z,1.7
2023-04-02T13:20:01.056Z,1.7
2023-04-02T13:32:01.053Z,1.7
2023-04-02T13:44:00.947Z,1.7
2023-04-02T13:56:01.148Z,1.7
2023-04-02T14:08:01.058Z,1.8
2023-04-02T14:20:01.074Z,1.8
2023-04-02T14:32:01.174Z,1.8
2023-04-02T14:44:01.150Z,1.8
2023-04-02T14:56:01.111Z,1.8
2023-04-02T15:08:01.064Z,1.9
2023-04-02T15:20:01.236Z,1.9
2023-04-02T15:32:01.186Z,2
2023-04-02T15:44:01.119Z,2
2023-04-02T15:56:01.099Z,2
2023-04-02T16:08:01.232Z,2
2023-04-02T16:20:02.079Z,2
2023-04-02T16:32:01.155Z,2.1
2023-04-02T16:44:01.353Z,2.1
2023-04-02T16:56:01.274Z,2.1
2023-04-02T17:08:01.252Z,2.2
2023-04-02T17:20:01.221Z,2.2
2023-04-02T17:32:01.868Z,2.2
2023-04-02T17:44:01.316Z,2.2
2023-04-02T17:56:01.460Z,2.2
2023-04-02T18:08:01.467Z,2.3
2023-04-02T18:20:01.721Z,2.3
2023-04-02T18:32:01.499Z,2.3
2023-04-02T18:44:01.326Z,2.3
2023-04-02T18:56:01.334Z,2.3
2023-04-02T19:08:01.939Z,2.4
2023-04-02T19:20:02.980Z,2.4
2023-04-02T19:32:01.463Z,2.5
2023-04-02T19:44:01.361Z,2.5
2023-04-02T19:56:01.433Z,2.5
2023-04-02T20:08:01.355Z,2.6
2023-04-02T20:20:01.580Z,2.6
2023-04-02T20:32:01.486Z,2.6
2023-04-02T20:44:01.466Z,2.6
2023-04-02T20:56:01.406Z,2.6
2023-04-02T21:08:01.579Z,2.7
2023-04-02T21:20:01.538Z,2.7
2023-04-02T21:32:05.669Z,2.8
2023-04-02T21:44:01.625Z,2.8
2023-04-02T21:56:01.628Z,2.8
2023-04-02T22:08:02.043Z,2.9
2023-04-02T22:20:01.922Z,2.9
2023-04-02T22:32:01.488Z,3
2023-04-02T22:44:01.704Z,3
2023-04-02T22:56:01.649Z,3
2023-04-02T23:08:01.609Z,0
2023-04-02T23:20:01.599Z,0
2023-04-02T23:32:01.579Z,0.1
2023-04-02T23:44:01.552Z,0.1
2023-04-02T23:56:01.765Z,0.1
